sensor_id;sensor_type;location;lat;lon;timestamp;temperature;humidity
75688;HTU21D;64300;45.034;38.910;2023-01-09T00:00:45;-10.65;91.10
75688;HTU21D;64300;45.034;38.910;2023-01-09T00:03:11;-10.66;90.63
75688;HTU21D;64300;45.034;38.910;2023-01-09T00:05:37;-10.66;90.76
75688;HTU21D;64300;45.034;38.910;2023-01-09T00:08:03;-10.68;90.57
75688;HTU21D;64300;45.034;38.910;2023-01-09T00:10:29;-10.75;93.09
75688;HTU21D;64300;45.034;38.910;2023-01-09T00:12:58;-10.75;90.76
75688;HTU21D;64300;45.034;38.910;2023-01-09T00:15:24;-10.73;90.85
75688;HTU21D;64300;45.034;38.910;2023-01-09T00:17:50;-10.75;90.87
75688;HTU21D;64300;45.034;38.910;2023-01-09T00:20:16;-10.76;92.36
75688;HTU21D;64300;45.034;38.910;2023-01-09T00:22:42;-10.82;94.08
75688;HTU21D;64300;45.034;38.910;2023-01-09T00:25:13;-10.79;91.36
75688;HTU21D;64300;45.034;38.910;2023-01-09T00:27:39;-10.79;90.95
75688;HTU21D;64300;45.034;38.910;2023-01-09T00:30:05;-10.84;92.31
75688;HTU21D;64300;45.034;38.910;2023-01-09T00:32:31;-10.84;91.26
75688;HTU21D;64300;45.034;38.910;2023-01-09T00:34:57;-10.85;91.06
75688;HTU21D;64300;45.034;38.910;2023-01-09T00:37:23;-10.86;90.98
75688;HTU21D;64300;45.034;38.910;2023-01-09T00:39:49;-10.96;95.62
75688;HTU21D;64300;45.034;38.910;2023-01-09T00:42:21;-10.94;92.63
75688;HTU21D;64300;45.034;38.910;2023-01-09T00:44:59;-10.94;91.34
75688;HTU21D;64300;45.034;38.910;2023-01-09T00:47:30;-10.96;92.43
75688;HTU21D;64300;45.034;38.910;2023-01-09T00:50:00;-11.00;92.30
75688;HTU21D;64300;45.034;38.910;2023-01-09T00:52:30;-10.97;91.54
75688;HTU21D;64300;45.034;38.910;2023-01-09T00:54:58;-11.00;92.16
75688;HTU21D;64300;45.034;38.910;2023-01-09T00:57:24;-11.00;91.39
75688;HTU21D;64300;45.034;38.910;2023-01-09T00:59:50;-11.00;91.45
75688;HTU21D;64300;45.034;38.910;2023-01-09T01:02:18;-11.02;91.63
75688;HTU21D;64300;45.034;38.910;2023-01-09T01:04:44;-11.02;91.60
75688;HTU21D;64300;45.034;38.910;2023-01-09T01:07:29;-11.02;91.62
75688;HTU21D;64300;45.034;38.910;2023-01-09T01:10:05;-11.10;94.44
75688;HTU21D;64300;45.034;38.910;2023-01-09T01:12:31;-11.10;93.91
75688;HTU21D;64300;45.034;38.910;2023-01-09T01:14:57;-11.09;93.49
75688;HTU21D;64300;45.034;38.910;2023-01-09T01:17:23;-11.04;92.29
75688;HTU21D;64300;45.034;38.910;2023-01-09T01:19:49;-11.04;92.05
75688;HTU21D;64300;45.034;38.910;2023-01-09T01:22:15;-11.04;92.22
75688;HTU21D;64300;45.034;38.910;2023-01-09T01:24:41;-11.07;91.98
75688;HTU21D;64300;45.034;38.910;2023-01-09T01:27:07;-11.20;96.55
75688;HTU21D;64300;45.034;38.910;2023-01-09T01:29:33;-11.14;92.69
75688;HTU21D;64300;45.034;38.910;2023-01-09T01:31:59;-11.19;95.17
75688;HTU21D;64300;45.034;38.910;2023-01-09T01:34:26;-11.10;92.82
75688;HTU21D;64300;45.034;38.910;2023-01-09T01:36:52;-11.12;92.75
75688;HTU21D;64300;45.034;38.910;2023-01-09T01:39:18;-11.15;93.22
75688;HTU21D;64300;45.034;38.910;2023-01-09T01:41:44;-11.12;92.65
75688;HTU21D;64300;45.034;38.910;2023-01-09T01:47:14;-11.20;94.69
75688;HTU21D;64300;45.034;38.910;2023-01-09T01:49:41;-11.20;94.49
75688;HTU21D;64300;45.034;38.910;2023-01-09T01:52:10;-11.18;93.27
75688;HTU21D;64300;45.034;38.910;2023-01-09T01:54:37;-11.20;93.44
75688;HTU21D;64300;45.034;38.910;2023-01-09T01:57:04;-11.22;94.39
75688;HTU21D;64300;45.034;38.910;2023-01-09T01:59:41;-11.18;93.24
75688;HTU21D;64300;45.034;38.910;2023-01-09T02:02:18;-11.21;93.78
75688;HTU21D;64300;45.034;38.910;2023-01-09T02:04:46;-11.22;93.76
75688;HTU21D;64300;45.034;38.910;2023-01-09T02:07:13;-11.23;92.90
75688;HTU21D;64300;45.034;38.910;2023-01-09T02:09:40;-11.21;92.90
75688;HTU21D;64300;45.034;38.910;2023-01-09T02:12:21;-11.24;93.08
75688;HTU21D;64300;45.034;38.910;2023-01-09T02:15:01;-11.23;93.08
75688;HTU21D;64300;45.034;38.910;2023-01-09T02:20:25;-11.27;93.06
75688;HTU21D;64300;45.034;38.910;2023-01-09T02:44:26;-11.45;95.47
75688;HTU21D;64300;45.034;38.910;2023-01-09T02:47:05;-11.45;95.76
75688;HTU21D;64300;45.034;38.910;2023-01-09T02:49:34;-11.45;94.72
75688;HTU21D;64300;45.034;38.910;2023-01-09T02:57:45;-11.44;93.72
75688;HTU21D;64300;45.034;38.910;2023-01-09T03:00:44;-11.44;93.60
75688;HTU21D;64300;45.034;38.910;2023-01-09T03:06:23;-11.47;93.62
75688;HTU21D;64300;45.034;38.910;2023-01-09T03:08:55;-11.53;95.43
75688;HTU21D;64300;45.034;38.910;2023-01-09T03:11:24;-11.51;94.31
75688;HTU21D;64300;45.034;38.910;2023-01-09T03:13:56;-11.48;93.91
75688;HTU21D;64300;45.034;38.910;2023-01-09T03:16:29;-11.47;93.64
75688;HTU21D;64300;45.034;38.910;2023-01-09T03:18:57;-11.47;93.69
75688;HTU21D;64300;45.034;38.910;2023-01-09T03:21:25;-11.41;93.86
75688;HTU21D;64300;45.034;38.910;2023-01-09T03:23:55;-11.46;94.74
75688;HTU21D;64300;45.034;38.910;2023-01-09T03:26:49;-11.42;93.97
75688;HTU21D;64300;45.034;38.910;2023-01-09T03:29:15;-11.42;93.66
75688;HTU21D;64300;45.034;38.910;2023-01-09T03:31:41;-11.41;93.78
75688;HTU21D;64300;45.034;38.910;2023-01-09T03:34:07;-11.40;93.90
75688;HTU21D;64300;45.034;38.910;2023-01-09T03:36:33;-11.36;94.14
75688;HTU21D;64300;45.034;38.910;2023-01-09T03:38:58;-11.36;94.07
75688;HTU21D;64300;45.034;38.910;2023-01-09T03:41:24;-11.32;94.23
75688;HTU21D;64300;45.034;38.910;2023-01-09T03:43:50;-11.31;94.20
75688;HTU21D;64300;45.034;38.910;2023-01-09T03:46:16;-11.30;94.23
75688;HTU21D;64300;45.034;38.910;2023-01-09T03:51:49;-11.26;94.22
75688;HTU21D;64300;45.034;38.910;2023-01-09T03:54:15;-11.24;94.30
75688;HTU21D;64300;45.034;38.910;2023-01-09T03:56:41;-11.23;94.46
75688;HTU21D;64300;45.034;38.910;2023-01-09T03:59:07;-11.20;94.46
75688;HTU21D;64300;45.034;38.910;2023-01-09T04:01:33;-11.17;94.46
75688;HTU21D;64300;45.034;38.910;2023-01-09T04:03:59;-11.16;94.39
75688;HTU21D;64300;45.034;38.910;2023-01-09T04:06:25;-11.17;94.31
75688;HTU21D;64300;45.034;38.910;2023-01-09T04:08:51;-11.14;94.35
75688;HTU21D;64300;45.034;38.910;2023-01-09T04:11:30;-11.14;94.38
75688;HTU21D;64300;45.034;38.910;2023-01-09T04:13:57;-11.14;94.21
75688;HTU21D;64300;45.034;38.910;2023-01-09T04:16:23;-11.16;94.27
75688;HTU21D;64300;45.034;38.910;2023-01-09T04:18:50;-11.14;94.36
75688;HTU21D;64300;45.034;38.910;2023-01-09T04:21:16;-11.16;94.88
75688;HTU21D;64300;45.034;38.910;2023-01-09T04:23:42;-11.07;94.86
75688;HTU21D;64300;45.034;38.910;2023-01-09T04:26:09;-11.10;94.47
75688;HTU21D;64300;45.034;38.910;2023-01-09T04:28:35;-11.10;94.52
75688;HTU21D;64300;45.034;38.910;2023-01-09T04:31:01;-11.10;94.37
75688;HTU21D;64300;45.034;38.910;2023-01-09T04:33:33;-11.07;94.52
75688;HTU21D;64300;45.034;38.910;2023-01-09T04:36:00;-11.05;94.60
75688;HTU21D;64300;45.034;38.910;2023-01-09T04:38:25;-11.04;94.73
75688;HTU21D;64300;45.034;38.910;2023-01-09T04:40:52;-11.03;94.88
75688;HTU21D;64300;45.034;38.910;2023-01-09T04:43:18;-11.03;94.81
75688;HTU21D;64300;45.034;38.910;2023-01-09T04:45:44;-11.01;94.86
75688;HTU21D;64300;45.034;38.910;2023-01-09T04:48:10;-11.01;95.26
75688;HTU21D;64300;45.034;38.910;2023-01-09T04:50:36;-10.93;95.02
75688;HTU21D;64300;45.034;38.910;2023-01-09T04:53:02;-10.91;95.01
75688;HTU21D;64300;45.034;38.910;2023-01-09T04:55:28;-10.91;94.81
75688;HTU21D;64300;45.034;38.910;2023-01-09T04:57:54;-10.93;94.73
75688;HTU21D;64300;45.034;38.910;2023-01-09T05:00:20;-10.89;95.09
75688;HTU21D;64300;45.034;38.910;2023-01-09T05:02:45;-10.89;94.97
75688;HTU21D;64300;45.034;38.910;2023-01-09T05:05:14;-10.87;94.88
75688;HTU21D;64300;45.034;38.910;2023-01-09T05:07:40;-10.82;94.93
75688;HTU21D;64300;45.034;38.910;2023-01-09T05:10:07;-10.85;94.95
75688;HTU21D;64300;45.034;38.910;2023-01-09T05:12:34;-10.81;95.52
75688;HTU21D;64300;45.034;38.910;2023-01-09T05:15:04;-10.76;95.23
75688;HTU21D;64300;45.034;38.910;2023-01-09T05:17:31;-10.73;95.02
75688;HTU21D;64300;45.034;38.910;2023-01-09T05:20:00;-10.67;94.91
75688;HTU21D;64300;45.034;38.910;2023-01-09T05:22:26;-10.64;94.90
75688;HTU21D;64300;45.034;38.910;2023-01-09T05:24:52;-10.61;95.06
75688;HTU21D;64300;45.034;38.910;2023-01-09T05:27:25;-10.56;95.04
75688;HTU21D;64300;45.034;38.910;2023-01-09T05:29:51;-10.52;95.09
75688;HTU21D;64300;45.034;38.910;2023-01-09T05:32:17;-10.49;94.84
75688;HTU21D;64300;45.034;38.910;2023-01-09T05:34:43;-10.49;94.95
75688;HTU21D;64300;45.034;38.910;2023-01-09T05:37:09;-10.45;95.01
75688;HTU21D;64300;45.034;38.910;2023-01-09T05:39:35;-10.40;94.84
75688;HTU21D;64300;45.034;38.910;2023-01-09T05:42:01;-10.31;94.62
75688;HTU21D;64300;45.034;38.910;2023-01-09T05:44:27;-10.30;94.88
75688;HTU21D;64300;45.034;38.910;2023-01-09T05:46:53;-10.26;94.98
75688;HTU21D;64300;45.034;38.910;2023-01-09T05:49:19;-10.20;94.88
75688;HTU21D;64300;45.034;38.910;2023-01-09T05:51:44;-10.12;94.75
75688;HTU21D;64300;45.034;38.910;2023-01-09T05:54:10;-10.06;94.64
75688;HTU21D;64300;45.034;38.910;2023-01-09T05:56:36;-10.03;94.81
75688;HTU21D;64300;45.034;38.910;2023-01-09T05:59:02;-9.91;94.43
75688;HTU21D;64300;45.034;38.910;2023-01-09T06:01:28;-9.86;94.38
75688;HTU21D;64300;45.034;38.910;2023-01-09T06:03:54;-9.83;94.09
75688;HTU21D;64300;45.034;38.910;2023-01-09T06:06:20;-9.70;93.75
75688;HTU21D;64300;45.034;38.910;2023-01-09T06:08:50;-9.63;93.47
75688;HTU21D;64300;45.034;38.910;2023-01-09T06:11:16;-9.59;93.46
75688;HTU21D;64300;45.034;38.910;2023-01-09T06:13:42;-9.54;93.37
75688;HTU21D;64300;45.034;38.910;2023-01-09T06:16:07;-9.53;93.52
75688;HTU21D;64300;45.034;38.910;2023-01-09T06:18:34;-9.42;93.11
75688;HTU21D;64300;45.034;38.910;2023-01-09T06:20:59;-9.37;92.89
75688;HTU21D;64300;45.034;38.910;2023-01-09T06:23:25;-9.31;92.64
75688;HTU21D;64300;45.034;38.910;2023-01-09T06:25:51;-9.27;92.50
75688;HTU21D;64300;45.034;38.910;2023-01-09T06:28:17;-9.23;92.53
75688;HTU21D;64300;45.034;38.910;2023-01-09T06:30:43;-9.16;92.50
75688;HTU21D;64300;45.034;38.910;2023-01-09T06:33:09;-9.11;92.44
75688;HTU21D;64300;45.034;38.910;2023-01-09T06:35:35;-9.03;92.04
75688;HTU21D;64300;45.034;38.910;2023-01-09T06:38:01;-9.00;91.94
75688;HTU21D;64300;45.034;38.910;2023-01-09T06:40:28;-8.94;91.76
75688;HTU21D;64300;45.034;38.910;2023-01-09T06:42:53;-8.89;91.81
75688;HTU21D;64300;45.034;38.910;2023-01-09T06:45:19;-8.84;91.63
75688;HTU21D;64300;45.034;38.910;2023-01-09T06:47:45;-8.75;91.05
75688;HTU21D;64300;45.034;38.910;2023-01-09T06:50:11;-8.73;91.05
75688;HTU21D;64300;45.034;38.910;2023-01-09T06:52:41;-8.72;90.80
75688;HTU21D;64300;45.034;38.910;2023-01-09T06:55:08;-8.63;91.05
75688;HTU21D;64300;45.034;38.910;2023-01-09T06:57:34;-8.58;90.94
75688;HTU21D;64300;45.034;38.910;2023-01-09T07:00:00;-8.54;91.03
75688;HTU21D;64300;45.034;38.910;2023-01-09T07:02:26;-8.50;91.25
75688;HTU21D;64300;45.034;38.910;2023-01-09T07:04:51;-8.43;91.34
75688;HTU21D;64300;45.034;38.910;2023-01-09T07:07:18;-8.40;91.47
75688;HTU21D;64300;45.034;38.910;2023-01-09T07:09:44;-8.31;91.49
75688;HTU21D;64300;45.034;38.910;2023-01-09T07:12:10;-8.24;91.25
75688;HTU21D;64300;45.034;38.910;2023-01-09T07:14:37;-8.15;90.58
75688;HTU21D;64300;45.034;38.910;2023-01-09T07:17:03;-8.08;90.50
75688;HTU21D;64300;45.034;38.910;2023-01-09T07:19:29;-8.01;90.50
75688;HTU21D;64300;45.034;38.910;2023-01-09T07:21:57;-7.94;90.22
75688;HTU21D;64300;45.034;38.910;2023-01-09T07:24:22;-7.91;90.69
75688;HTU21D;64300;45.034;38.910;2023-01-09T07:26:48;-7.81;90.02
75688;HTU21D;64300;45.034;38.910;2023-01-09T07:29:14;-7.74;89.77
75688;HTU21D;64300;45.034;38.910;2023-01-09T07:31:40;-7.67;89.63
75688;HTU21D;64300;45.034;38.910;2023-01-09T07:34:06;-7.62;89.77
75688;HTU21D;64300;45.034;38.910;2023-01-09T07:36:40;-7.55;90.04
75688;HTU21D;64300;45.034;38.910;2023-01-09T07:39:06;-7.47;89.17
75688;HTU21D;64300;45.034;38.910;2023-01-09T07:41:33;-7.39;88.38
75688;HTU21D;64300;45.034;38.910;2023-01-09T07:43:59;-7.32;88.79
75688;HTU21D;64300;45.034;38.910;2023-01-09T07:46:25;-7.22;88.42
75688;HTU21D;64300;45.034;38.910;2023-01-09T07:48:51;-7.16;88.46
75688;HTU21D;64300;45.034;38.910;2023-01-09T07:51:17;-7.07;88.10
75688;HTU21D;64300;45.034;38.910;2023-01-09T07:53:42;-7.01;88.18
75688;HTU21D;64300;45.034;38.910;2023-01-09T07:56:08;-6.92;87.83
75688;HTU21D;64300;45.034;38.910;2023-01-09T07:58:34;-6.81;86.74
75688;HTU21D;64300;45.034;38.910;2023-01-09T08:01:00;-6.79;85.33
75688;HTU21D;64300;45.034;38.910;2023-01-09T08:03:26;-6.70;87.05
75688;HTU21D;64300;45.034;38.910;2023-01-09T08:05:52;-6.63;87.44
75688;HTU21D;64300;45.034;38.910;2023-01-09T08:08:18;-6.51;86.90
75688;HTU21D;64300;45.034;38.910;2023-01-09T08:10:43;-6.42;86.23
75688;HTU21D;64300;45.034;38.910;2023-01-09T08:13:09;-6.34;85.97
75688;HTU21D;64300;45.034;38.910;2023-01-09T08:15:35;-6.29;85.55
75688;HTU21D;64300;45.034;38.910;2023-01-09T08:18:01;-6.23;85.53
75688;HTU21D;64300;45.034;38.910;2023-01-09T08:20:27;-6.18;82.84
75688;HTU21D;64300;45.034;38.910;2023-01-09T08:22:53;-6.09;85.32
75688;HTU21D;64300;45.034;38.910;2023-01-09T08:25:19;-6.01;85.78
75688;HTU21D;64300;45.034;38.910;2023-01-09T08:27:46;-5.93;84.97
75688;HTU21D;64300;45.034;38.910;2023-01-09T08:30:12;-5.88;84.52
75688;HTU21D;64300;45.034;38.910;2023-01-09T08:32:38;-5.78;84.56
75688;HTU21D;64300;45.034;38.910;2023-01-09T08:35:06;-5.69;84.93
75688;HTU21D;64300;45.034;38.910;2023-01-09T08:37:35;-5.60;84.74
75688;HTU21D;64300;45.034;38.910;2023-01-09T08:40:01;-5.53;84.50
75688;HTU21D;64300;45.034;38.910;2023-01-09T08:42:27;-5.46;84.76
75688;HTU21D;64300;45.034;38.910;2023-01-09T08:45:15;-5.35;84.24
75688;HTU21D;64300;45.034;38.910;2023-01-09T08:47:59;-5.31;82.68
75688;HTU21D;64300;45.034;38.910;2023-01-09T08:50:25;-5.23;83.91
75688;HTU21D;64300;45.034;38.910;2023-01-09T08:52:51;-5.15;84.03
75688;HTU21D;64300;45.034;38.910;2023-01-09T08:55:17;-5.09;83.39
75688;HTU21D;64300;45.034;38.910;2023-01-09T08:57:52;-4.96;81.13
75688;HTU21D;64300;45.034;38.910;2023-01-09T09:00:20;-4.93;82.29
75688;HTU21D;64300;45.034;38.910;2023-01-09T09:02:54;-4.86;82.23
75688;HTU21D;64300;45.034;38.910;2023-01-09T09:05:21;-4.75;81.11
75688;HTU21D;64300;45.034;38.910;2023-01-09T09:07:51;-4.69;80.27
75688;HTU21D;64300;45.034;38.910;2023-01-09T09:10:22;-4.59;80.14
75688;HTU21D;64300;45.034;38.910;2023-01-09T09:12:50;-4.52;80.69
75688;HTU21D;64300;45.034;38.910;2023-01-09T09:15:16;-4.43;80.50
75688;HTU21D;64300;45.034;38.910;2023-01-09T09:17:59;-4.38;78.38
75688;HTU21D;64300;45.034;38.910;2023-01-09T09:20:31;-4.27;78.34
75688;HTU21D;64300;45.034;38.910;2023-01-09T09:22:58;-4.19;77.31
75688;HTU21D;64300;45.034;38.910;2023-01-09T09:25:24;-4.17;77.94
75688;HTU21D;64300;45.034;38.910;2023-01-09T09:27:51;-4.14;78.28
75688;HTU21D;64300;45.034;38.910;2023-01-09T09:30:18;-4.10;78.76
75688;HTU21D;64300;45.034;38.910;2023-01-09T09:32:44;-4.07;78.92
75688;HTU21D;64300;45.034;38.910;2023-01-09T09:35:11;-4.04;78.61
75688;HTU21D;64300;45.034;38.910;2023-01-09T09:37:37;-3.99;77.94
75688;HTU21D;64300;45.034;38.910;2023-01-09T09:40:09;-3.91;78.27
75688;HTU21D;64300;45.034;38.910;2023-01-09T09:43:46;-3.72;77.83
75688;HTU21D;64300;45.034;38.910;2023-01-09T09:48:47;-3.49;79.42
75688;HTU21D;64300;45.034;38.910;2023-01-09T09:54:16;-3.25;79.04
75688;HTU21D;64300;45.034;38.910;2023-01-09T09:56:55;-3.20;79.00
75688;HTU21D;64300;45.034;38.910;2023-01-09T09:59:24;-3.10;77.59
75688;HTU21D;64300;45.034;38.910;2023-01-09T10:04:26;-2.77;77.60
75688;HTU21D;64300;45.034;38.910;2023-01-09T10:06:56;-2.58;77.14
75688;HTU21D;64300;45.034;38.910;2023-01-09T10:09:44;-2.31;76.09
75688;HTU21D;64300;45.034;38.910;2023-01-09T10:12:27;-2.03;76.97
75688;HTU21D;64300;45.034;38.910;2023-01-09T10:14:56;-1.77;76.90
75688;HTU21D;64300;45.034;38.910;2023-01-09T10:37:01;-0.19;73.81
75688;HTU21D;64300;45.034;38.910;2023-01-09T10:42:24;-0.23;71.83
75688;HTU21D;64300;45.034;38.910;2023-01-09T10:47:53;-0.59;71.90
75688;HTU21D;64300;45.034;38.910;2023-01-09T10:50:24;-0.75;71.44
75688;HTU21D;64300;45.034;38.910;2023-01-09T10:52:55;-0.83;71.48
75688;HTU21D;64300;45.034;38.910;2023-01-09T10:55:31;-0.90;71.90
75688;HTU21D;64300;45.034;38.910;2023-01-09T10:58:01;-0.93;72.06
75688;HTU21D;64300;45.034;38.910;2023-01-09T11:00:28;-0.88;72.38
75688;HTU21D;64300;45.034;38.910;2023-01-09T11:02:54;-0.82;72.57
75688;HTU21D;64300;45.034;38.910;2023-01-09T11:05:25;-0.72;72.30
75688;HTU21D;64300;45.034;38.910;2023-01-09T11:10:55;-0.65;69.81
75688;HTU21D;64300;45.034;38.910;2023-01-09T11:13:29;-0.57;70.26
75688;HTU21D;64300;45.034;38.910;2023-01-09T11:16:18;-0.52;71.10
75688;HTU21D;64300;45.034;38.910;2023-01-09T11:18:59;-0.38;71.08
75688;HTU21D;64300;45.034;38.910;2023-01-09T11:27:21;-0.03;69.81
75688;HTU21D;64300;45.034;38.910;2023-01-09T11:30:19;0.09;69.92
75688;HTU21D;64300;45.034;38.910;2023-01-09T11:32:46;0.18;70.39
75688;HTU21D;64300;45.034;38.910;2023-01-09T11:35:21;0.24;70.57
75688;HTU21D;64300;45.034;38.910;2023-01-09T11:38:03;0.30;70.52
75688;HTU21D;64300;45.034;38.910;2023-01-09T11:40:47;0.37;70.65
75688;HTU21D;64300;45.034;38.910;2023-01-09T11:46:06;0.55;70.59
75688;HTU21D;64300;45.034;38.910;2023-01-09T11:48:41;0.67;70.39
75688;HTU21D;64300;45.034;38.910;2023-01-09T11:51:20;0.75;69.05
75688;HTU21D;64300;45.034;38.910;2023-01-09T11:54:12;0.81;66.25
75688;HTU21D;64300;45.034;38.910;2023-01-09T11:56:39;0.83;66.20
75688;HTU21D;64300;45.034;38.910;2023-01-09T11:59:26;0.83;64.52
75688;HTU21D;64300;45.034;38.910;2023-01-09T12:16:40;0.95;65.29
75688;HTU21D;64300;45.034;38.910;2023-01-09T12:21:49;0.98;65.50
75688;HTU21D;64300;45.034;38.910;2023-01-09T12:32:43;1.13;66.14
75688;HTU21D;64300;45.034;38.910;2023-01-09T12:46:23;0.73;65.20
75688;HTU21D;64300;45.034;38.910;2023-01-09T12:51:48;0.62;65.28
75688;HTU21D;64300;45.034;38.910;2023-01-09T12:57:17;0.51;64.38
75688;HTU21D;64300;45.034;38.910;2023-01-09T12:59:49;0.55;65.27
75688;HTU21D;64300;45.034;38.910;2023-01-09T13:02:25;0.61;64.49
75688;HTU21D;64300;45.034;38.910;2023-01-09T13:07:27;0.69;65.45
75688;HTU21D;64300;45.034;38.910;2023-01-09T13:10:04;0.74;65.11
75688;HTU21D;64300;45.034;38.910;2023-01-09T13:12:35;0.77;65.30
75688;HTU21D;64300;45.034;38.910;2023-01-09T13:17:49;0.81;65.65
75688;HTU21D;64300;45.034;38.910;2023-01-09T13:20:18;0.81;65.17
75688;HTU21D;64300;45.034;38.910;2023-01-09T13:22:45;0.80;65.22
75688;HTU21D;64300;45.034;38.910;2023-01-09T13:25:42;0.76;61.90
75688;HTU21D;64300;45.034;38.910;2023-01-09T13:31:05;0.67;63.81
75688;HTU21D;64300;45.034;38.910;2023-01-09T13:33:48;0.68;62.66
75688;HTU21D;64300;45.034;38.910;2023-01-09T13:36:27;0.71;64.47
75688;HTU21D;64300;45.034;38.910;2023-01-09T13:38:55;0.69;64.36
75688;HTU21D;64300;45.034;38.910;2023-01-09T13:41:23;0.71;64.64
75688;HTU21D;64300;45.034;38.910;2023-01-09T13:44:25;0.71;63.46
75688;HTU21D;64300;45.034;38.910;2023-01-09T13:46:58;0.71;63.17
75688;HTU21D;64300;45.034;38.910;2023-01-09T13:57:34;0.65;63.89
75688;HTU21D;64300;45.034;38.910;2023-01-09T14:08:05;0.65;63.04
75688;HTU21D;64300;45.034;38.910;2023-01-09T14:10:44;0.67;63.07
75688;HTU21D;64300;45.034;38.910;2023-01-09T14:13:18;0.66;63.01
75688;HTU21D;64300;45.034;38.910;2023-01-09T14:15:45;0.68;63.21
75688;HTU21D;64300;45.034;38.910;2023-01-09T14:18:21;0.69;62.27
75688;HTU21D;64300;45.034;38.910;2023-01-09T14:20:59;0.62;61.83
75688;HTU21D;64300;45.034;38.910;2023-01-09T14:25:55;0.52;62.43
75688;HTU21D;64300;45.034;38.910;2023-01-09T14:28:23;0.47;61.69
75688;HTU21D;64300;45.034;38.910;2023-01-09T14:35:51;0.27;61.33
75688;HTU21D;64300;45.034;38.910;2023-01-09T14:42:10;0.15;61.70
75688;HTU21D;64300;45.034;38.910;2023-01-09T14:44:53;0.07;59.48
75688;HTU21D;64300;45.034;38.910;2023-01-09T14:50:00;0.14;59.21
75688;HTU21D;64300;45.034;38.910;2023-01-09T14:52:38;0.21;60.02
75688;HTU21D;64300;45.034;38.910;2023-01-09T14:55:24;0.30;59.83
75688;HTU21D;64300;45.034;38.910;2023-01-09T14:58:20;0.32;58.07
75688;HTU21D;64300;45.034;38.910;2023-01-09T15:01:03;0.38;60.70
75688;HTU21D;64300;45.034;38.910;2023-01-09T15:03:51;0.38;61.10
75688;HTU21D;64300;45.034;38.910;2023-01-09T15:06:22;0.35;60.94
75688;HTU21D;64300;45.034;38.910;2023-01-09T15:09:03;0.34;61.65
75688;HTU21D;64300;45.034;38.910;2023-01-09T15:11:30;0.31;61.83
75688;HTU21D;64300;45.034;38.910;2023-01-09T15:13:57;0.21;61.38
75688;HTU21D;64300;45.034;38.910;2023-01-09T15:16:27;0.13;60.50
75688;HTU21D;64300;45.034;38.910;2023-01-09T15:19:00;0.03;61.81
75688;HTU21D;64300;45.034;38.910;2023-01-09T15:21:29;-0.02;62.57
75688;HTU21D;64300;45.034;38.910;2023-01-09T15:24:19;-0.06;62.46
75688;HTU21D;64300;45.034;38.910;2023-01-09T15:30:14;-0.05;63.33
75688;HTU21D;64300;45.034;38.910;2023-01-09T15:32:41;-0.01;63.14
75688;HTU21D;64300;45.034;38.910;2023-01-09T15:35:12;0.02;63.00
75688;HTU21D;64300;45.034;38.910;2023-01-09T15:37:38;0.04;63.18
75688;HTU21D;64300;45.034;38.910;2023-01-09T15:40:06;0.08;62.71
75688;HTU21D;64300;45.034;38.910;2023-01-09T15:42:36;0.07;62.53
75688;HTU21D;64300;45.034;38.910;2023-01-09T15:45:42;0.06;63.03
75688;HTU21D;64300;45.034;38.910;2023-01-09T15:48:17;0.03;63.08
75688;HTU21D;64300;45.034;38.910;2023-01-09T15:50:44;-0.02;62.99
75688;HTU21D;64300;45.034;38.910;2023-01-09T15:53:17;-0.07;62.74
75688;HTU21D;64300;45.034;38.910;2023-01-09T15:55:43;-0.12;62.68
75688;HTU21D;64300;45.034;38.910;2023-01-09T16:01:37;-0.27;61.68
75688;HTU21D;64300;45.034;38.910;2023-01-09T16:04:11;-0.44;60.93
75688;HTU21D;64300;45.034;38.910;2023-01-09T16:06:44;-0.50;60.67
75688;HTU21D;64300;45.034;38.910;2023-01-09T16:09:15;-0.55;62.60
75688;HTU21D;64300;45.034;38.910;2023-01-09T16:11:46;-0.57;62.60
75688;HTU21D;64300;45.034;38.910;2023-01-09T16:14:23;-0.61;62.21
75688;HTU21D;64300;45.034;38.910;2023-01-09T16:16:53;-0.62;62.53
75688;HTU21D;64300;45.034;38.910;2023-01-09T16:22:31;-0.56;61.28
75688;HTU21D;64300;45.034;38.910;2023-01-09T16:25:26;-0.53;62.40
75688;HTU21D;64300;45.034;38.910;2023-01-09T16:28:17;-0.57;62.17
75688;HTU21D;64300;45.034;38.910;2023-01-09T16:30:57;-0.65;61.59
75688;HTU21D;64300;45.034;38.910;2023-01-09T16:33:25;-0.72;62.08
75688;HTU21D;64300;45.034;38.910;2023-01-09T16:35:51;-0.86;62.56
75688;HTU21D;64300;45.034;38.910;2023-01-09T16:38:18;-0.98;62.92
75688;HTU21D;64300;45.034;38.910;2023-01-09T16:43:46;-1.12;63.65
75688;HTU21D;64300;45.034;38.910;2023-01-09T16:46:18;-1.17;63.92
75688;HTU21D;64300;45.034;38.910;2023-01-09T16:48:46;-1.24;64.21
75688;HTU21D;64300;45.034;38.910;2023-01-09T16:51:21;-1.32;64.81
75688;HTU21D;64300;45.034;38.910;2023-01-09T16:53:50;-1.47;65.46
75688;HTU21D;64300;45.034;38.910;2023-01-09T16:56:23;-1.53;65.89
75688;HTU21D;64300;45.034;38.910;2023-01-09T16:58:52;-1.55;65.78
75688;HTU21D;64300;45.034;38.910;2023-01-09T17:01:20;-1.61;66.11
75688;HTU21D;64300;45.034;38.910;2023-01-09T17:03:48;-1.63;66.36
75688;HTU21D;64300;45.034;38.910;2023-01-09T17:08:45;-1.75;66.85
75688;HTU21D;64300;45.034;38.910;2023-01-09T17:11:22;-1.78;67.01
75688;HTU21D;64300;45.034;38.910;2023-01-09T17:13:50;-1.84;67.17
75688;HTU21D;64300;45.034;38.910;2023-01-09T17:16:17;-1.92;68.07
75688;HTU21D;64300;45.034;38.910;2023-01-09T17:18:47;-1.97;67.94
75688;HTU21D;64300;45.034;38.910;2023-01-09T17:21:21;-1.99;68.05
75688;HTU21D;64300;45.034;38.910;2023-01-09T17:23:48;-2.09;69.65
75688;HTU21D;64300;45.034;38.910;2023-01-09T17:26:37;-2.15;69.39
75688;HTU21D;64300;45.034;38.910;2023-01-09T17:29:23;-2.15;68.71
75688;HTU21D;64300;45.034;38.910;2023-01-09T17:32:00;-2.26;70.30
75688;HTU21D;64300;45.034;38.910;2023-01-09T17:34:26;-2.24;69.36
75688;HTU21D;64300;45.034;38.910;2023-01-09T17:36:51;-2.31;70.67
75688;HTU21D;64300;45.034;38.910;2023-01-09T17:39:20;-2.29;69.72
75688;HTU21D;64300;45.034;38.910;2023-01-09T17:41:46;-2.30;69.88
75688;HTU21D;64300;45.034;38.910;2023-01-09T17:44:12;-2.36;70.46
75688;HTU21D;64300;45.034;38.910;2023-01-09T17:46:41;-2.41;70.28
75688;HTU21D;64300;45.034;38.910;2023-01-09T17:49:19;-2.48;70.92
75688;HTU21D;64300;45.034;38.910;2023-01-09T17:51:46;-2.47;70.91
75688;HTU21D;64300;45.034;38.910;2023-01-09T17:54:12;-2.47;70.84
75688;HTU21D;64300;45.034;38.910;2023-01-09T17:56:44;-2.56;71.35
75688;HTU21D;64300;45.034;38.910;2023-01-09T17:59:12;-2.62;71.68
75688;HTU21D;64300;45.034;38.910;2023-01-09T18:01:41;-2.63;71.51
75688;HTU21D;64300;45.034;38.910;2023-01-09T18:04:08;-2.65;71.82
75688;HTU21D;64300;45.034;38.910;2023-01-09T18:06:35;-2.65;71.90
75688;HTU21D;64300;45.034;38.910;2023-01-09T18:09:06;-2.65;72.22
75688;HTU21D;64300;45.034;38.910;2023-01-09T18:11:33;-2.63;72.28
75688;HTU21D;64300;45.034;38.910;2023-01-09T18:13:59;-2.59;72.38
75688;HTU21D;64300;45.034;38.910;2023-01-09T18:16:55;-2.51;72.51
75688;HTU21D;64300;45.034;38.910;2023-01-09T18:19:21;-2.48;72.31